createdAt,value
2022-12-18T00:01:18.355Z,5.24
2022-12-18T00:03:17.012Z,5.14
2022-12-18T00:05:15.640Z,5.29
2022-12-18T00:07:13.896Z,5.34
2022-12-18T00:09:12.356Z,5.29
2022-12-18T00:11:14.172Z,5.19
2022-12-18T00:13:14.416Z,5.20
2022-12-18T00:15:13.019Z,5.14
2022-12-18T00:17:11.326Z,5.10
2022-12-18T00:19:09.520Z,5.04
2022-12-18T00:21:11.302Z,5.04
2022-12-18T00:23:09.887Z,5.07
2022-12-18T00:25:08.837Z,5.13
2022-12-18T00:27:06.888Z,5.07
2022-12-18T00:29:08.353Z,4.96
2022-12-18T00:31:08.499Z,4.94
2022-12-18T00:33:06.720Z,4.88
2022-12-18T00:35:08.045Z,4.94
2022-12-18T00:37:06.240Z,4.98
2022-12-18T00:39:07.266Z,5.03
2022-12-18T00:41:06.304Z,4.99
2022-12-18T00:43:06.327Z,4.82
2022-12-18T00:45:13.007Z,4.68
2022-12-18T00:47:11.551Z,4.63
2022-12-18T00:49:08.785Z,4.61
2022-12-18T00:51:07.895Z,4.66
2022-12-18T00:53:06.320Z,4.83
2022-12-18T00:55:06.564Z,4.74
2022-12-18T00:57:05.185Z,4.66
2022-12-18T00:59:03.432Z,4.57
2022-12-18T01:01:03.023Z,4.61
2022-12-18T01:03:01.349Z,4.66
2022-12-18T01:04:59.779Z,4.60
2022-12-18T01:06:57.876Z,4.56
2022-12-18T01:08:56.223Z,4.49
2022-12-18T01:10:54.474Z,4.48
2022-12-18T01:12:52.872Z,4.42
2022-12-18T01:14:51.080Z,4.33
2022-12-18T01:16:50.913Z,4.35
2022-12-18T01:18:49.127Z,4.34
2022-12-18T01:20:47.302Z,4.34
2022-12-18T01:22:45.637Z,4.25
2022-12-18T01:24:43.827Z,4.45
2022-12-18T01:26:41.912Z,4.43
2022-12-18T01:28:40.995Z,4.33
2022-12-18T01:30:39.767Z,4.29
2022-12-18T01:32:40.222Z,4.19
2022-12-18T01:34:39.060Z,4.18
2022-12-18T01:36:40.220Z,4.07
2022-12-18T01:38:38.485Z,4.03
2022-12-18T01:40:37.009Z,3.98
2022-12-18T01:42:35.358Z,3.99
2022-12-18T01:45:10.013Z,3.95
2022-12-18T01:47:08.263Z,3.81
2022-12-18T01:49:07.954Z,3.93
2022-12-18T01:51:07.093Z,3.84
2022-12-18T01:53:09.569Z,3.79
2022-12-18T01:55:09.597Z,3.71
2022-12-18T01:57:08.055Z,3.66
2022-12-18T01:59:10.297Z,3.77
2022-12-18T02:01:08.646Z,3.75
2022-12-18T02:03:07.163Z,3.71
2022-12-18T02:05:08.410Z,3.73
2022-12-18T02:07:14.879Z,3.69
2022-12-18T02:09:17.657Z,3.79
2022-12-18T02:11:26.683Z,3.73
2022-12-18T02:13:32.322Z,3.73
2022-12-18T02:15:41.437Z,3.80
2022-12-18T02:17:45.188Z,3.77
2022-12-18T02:19:57.850Z,3.78
2022-12-18T02:22:13.480Z,3.71
2022-12-18T02:24:26.549Z,3.69
2022-12-18T02:26:31.192Z,3.64
2022-12-18T02:28:34.575Z,3.64
2022-12-18T02:30:40.057Z,3.73
2022-12-18T02:32:43.619Z,3.70
2022-12-18T02:34:42.752Z,3.71
2022-12-18T02:36:47.548Z,3.77
2022-12-18T02:38:48.083Z,3.71
2022-12-18T02:40:48.665Z,3.61
2022-12-18T02:42:51.594Z,3.62
2022-12-18T02:44:52.711Z,3.57
2022-12-18T02:46:56.202Z,3.57
2022-12-18T02:49:02.440Z,3.55
2022-12-18T02:51:06.830Z,3.52
2022-12-18T02:53:17.698Z,3.52
2022-12-18T02:55:28.230Z,3.54
2022-12-18T02:57:38.693Z,3.45
2022-12-18T02:59:43.376Z,3.35
2022-12-18T03:01:51.560Z,3.43
2022-12-18T03:03:54.493Z,3.42
2022-12-18T03:05:55.555Z,3.39
2022-12-18T03:07:59.141Z,3.49
2022-12-18T03:10:02.616Z,3.60
2022-12-18T03:12:23.911Z,3.66
2022-12-18T03:14:25.680Z,3.64
2022-12-18T03:16:29.395Z,3.63
2022-12-18T03:18:32.642Z,3.67
2022-12-18T03:20:34.609Z,3.75
2022-12-18T03:22:35.545Z,3.75
2022-12-18T03:24:35.862Z,3.64
2022-12-18T03:26:35.661Z,3.69
2022-12-18T03:28:39.737Z,3.75
2022-12-18T03:30:42.535Z,3.90
2022-12-18T03:32:49.228Z,4.00
2022-12-18T03:34:51.323Z,3.89
2022-12-18T03:36:52.219Z,3.87
2022-12-18T03:38:50.696Z,3.77
2022-12-18T03:41:00.617Z,3.75
2022-12-18T03:43:08.981Z,3.61
2022-12-18T03:45:11.925Z,3.48
2022-12-18T03:47:17.714Z,3.43
2022-12-18T03:49:26.289Z,3.24
2022-12-18T03:51:32.517Z,3.26
2022-12-18T03:53:37.420Z,3.25
2022-12-18T03:55:38.204Z,3.31
2022-12-18T03:57:39.294Z,3.24
2022-12-18T03:59:38.588Z,3.24
2022-12-18T04:01:40.669Z,3.23
2022-12-18T04:03:41.355Z,3.09
2022-12-18T04:05:42.465Z,3.16
2022-12-18T04:07:42.319Z,3.32
2022-12-18T04:09:44.024Z,3.41
2022-12-18T04:11:43.210Z,3.50
2022-12-18T04:13:44.312Z,3.47
2022-12-18T04:15:50.689Z,3.45
2022-12-18T04:17:51.642Z,3.52
2022-12-18T04:19:53.974Z,3.51
2022-12-18T04:21:53.503Z,3.53
2022-12-18T04:23:52.429Z,3.63
2022-12-18T04:25:53.088Z,3.64
2022-12-18T04:28:04.795Z,3.55
2022-12-18T04:30:03.995Z,3.46
2022-12-18T04:32:02.828Z,3.35
2022-12-18T04:34:03.195Z,3.28
2022-12-18T04:36:04.044Z,3.26
2022-12-18T04:38:03.654Z,3.24
2022-12-18T04:40:02.411Z,3.24
2022-12-18T04:42:09.277Z,3.26
2022-12-18T04:44:07.556Z,3.23
2022-12-18T04:46:07.261Z,3.32
2022-12-18T04:48:06.638Z,3.34
2022-12-18T04:50:05.632Z,3.36
2022-12-18T04:52:04.019Z,3.38
2022-12-18T04:54:06.484Z,3.23
2022-12-18T04:56:07.037Z,3.16
2022-12-18T04:58:06.083Z,3.14
2022-12-18T05:00:07.220Z,3.10
2022-12-18T05:02:05.548Z,3.13
2022-12-18T05:04:04.309Z,3.06
2022-12-18T05:06:02.901Z,2.99
2022-12-18T05:08:01.182Z,3.01
2022-12-18T05:10:01.053Z,3.15
2022-12-18T05:11:59.219Z,3.31
2022-12-18T05:13:57.402Z,3.35
2022-12-18T05:15:55.847Z,3.36
2022-12-18T05:17:54.190Z,3.37
2022-12-18T05:19:52.414Z,3.36
2022-12-18T05:21:50.805Z,3.30
2022-12-18T05:23:48.976Z,3.23
2022-12-18T05:25:53.364Z,3.23
2022-12-18T05:27:51.703Z,3.06
2022-12-18T05:29:49.918Z,3.10
2022-12-18T05:31:48.253Z,3.23
2022-12-18T05:33:46.687Z,3.33
2022-12-18T05:35:45.206Z,3.30
2022-12-18T05:37:43.672Z,3.18
2022-12-18T05:39:42.029Z,3.12
2022-12-18T05:41:41.691Z,3.07
2022-12-18T05:43:41.789Z,3.03
2022-12-18T05:45:41.185Z,3.01
2022-12-18T05:47:39.497Z,3.00
2022-12-18T05:49:37.685Z,3.09
2022-12-18T05:51:35.973Z,3.19
2022-12-18T05:53:34.213Z,3.19
2022-12-18T05:55:36.065Z,3.08
2022-12-18T05:57:35.857Z,3.07
2022-12-18T05:59:34.401Z,3.06
2022-12-18T06:01:32.772Z,3.00
2022-12-18T06:03:33.899Z,3.00
2022-12-18T06:05:37.735Z,3.01
2022-12-18T06:07:35.947Z,3.00
2022-12-18T06:09:34.197Z,3.05
2022-12-18T06:11:32.706Z,3.13
2022-12-18T06:13:32.347Z,3.05
2022-12-18T06:15:30.503Z,2.95
2022-12-18T06:17:31.136Z,2.87
2022-12-18T06:19:29.479Z,2.95
2022-12-18T06:21:27.792Z,3.05
2022-12-18T06:23:26.090Z,3.10
2022-12-18T06:25:24.297Z,3.00
2022-12-18T06:27:22.695Z,2.93
2022-12-18T06:29:22.508Z,2.88
2022-12-18T06:31:20.925Z,2.89
2022-12-18T06:33:19.731Z,2.81
2022-12-18T06:35:17.926Z,2.88
2022-12-18T06:37:16.624Z,2.83
2022-12-18T06:39:14.794Z,2.83
2022-12-18T06:41:14.725Z,2.90
2022-12-18T06:43:12.977Z,2.84
2022-12-18T06:45:13.150Z,2.85
2022-12-18T06:47:11.669Z,2.84
2022-12-18T06:49:11.124Z,2.86
2022-12-18T06:51:09.444Z,2.84
2022-12-18T06:53:07.764Z,2.88
2022-12-18T06:55:15.086Z,3.07
2022-12-18T06:57:13.445Z,3.10
2022-12-18T06:59:11.709Z,3.08
2022-12-18T07:01:13.378Z,3.02
2022-12-18T07:03:11.725Z,2.97
2022-12-18T07:05:11.295Z,3.03
2022-12-18T07:07:09.604Z,2.94
2022-12-18T07:09:07.967Z,3.00
2022-12-18T07:11:06.873Z,2.97
2022-12-18T07:13:05.169Z,2.99
2022-12-18T07:15:05.937Z,3.00
2022-12-18T07:17:05.853Z,2.94
2022-12-18T07:19:04.902Z,2.99
2022-12-18T07:21:05.730Z,2.96
2022-12-18T07:23:04.860Z,2.87
2022-12-18T07:25:03.114Z,2.87
2022-12-18T07:27:01.393Z,2.85
2022-12-18T07:29:00.260Z,2.83
2022-12-18T07:30:58.494Z,2.84
2022-12-18T07:32:58.283Z,2.77
2022-12-18T07:34:56.509Z,2.74
2022-12-18T07:36:54.851Z,2.69
2022-12-18T07:38:53.925Z,2.68
2022-12-18T07:40:52.197Z,2.72
2022-12-18T07:42:50.330Z,2.67
2022-12-18T07:44:48.581Z,2.73
2022-12-18T07:46:47.019Z,2.73
2022-12-18T07:48:49.968Z,2.68
2022-12-18T07:50:48.467Z,2.69
2022-12-18T07:52:46.915Z,2.72
2022-12-18T07:54:45.295Z,2.81
2022-12-18T07:56:43.581Z,2.98
2022-12-18T07:58:41.959Z,2.99
2022-12-18T08:00:40.150Z,3.01
2022-12-18T08:02:38.651Z,3.15
2022-12-18T08:04:39.541Z,3.13
2022-12-18T08:06:37.949Z,3.20
2022-12-18T08:08:36.809Z,3.11
2022-12-18T08:10:34.985Z,3.11
2022-12-18T08:12:33.203Z,3.04
2022-12-18T08:14:31.415Z,2.96
2022-12-18T08:16:29.743Z,3.00
2022-12-18T08:18:28.146Z,3.03
2022-12-18T08:20:27.900Z,2.98
2022-12-18T08:22:26.031Z,2.88
2022-12-18T08:24:24.360Z,2.92
2022-12-18T08:26:23.653Z,2.99
2022-12-18T08:28:21.862Z,3.04
2022-12-18T08:30:20.282Z,3.02
2022-12-18T08:32:18.443Z,3.05
2022-12-18T08:34:16.904Z,3.03
2022-12-18T08:36:16.407Z,3.09
2022-12-18T08:38:14.707Z,3.12
2022-12-18T08:40:14.026Z,3.26
2022-12-18T08:42:29.920Z,3.24
2022-12-18T08:44:39.965Z,3.41
2022-12-18T08:46:40.171Z,3.43
2022-12-18T08:48:38.549Z,3.53
2022-12-18T08:50:36.841Z,3.63
2022-12-18T08:52:36.417Z,3.65
2022-12-18T08:54:34.761Z,3.59
2022-12-18T08:56:33.565Z,3.61
2022-12-18T08:58:34.159Z,3.54
2022-12-18T09:00:32.479Z,3.52
2022-12-18T09:02:36.598Z,3.49
2022-12-18T09:04:40.844Z,3.41
2022-12-18T09:06:39.486Z,3.33
2022-12-18T09:08:39.589Z,3.46
2022-12-18T09:10:45.385Z,3.57
2022-12-18T09:12:43.678Z,3.64
2022-12-18T09:14:41.998Z,3.62
2022-12-18T09:16:40.569Z,3.62
2022-12-18T09:18:39.202Z,3.56
2022-12-18T09:20:38.159Z,3.58
2022-12-18T09:22:36.411Z,3.76
2022-12-18T09:24:36.035Z,3.88
2022-12-18T09:26:34.455Z,3.90
2022-12-18T09:28:32.836Z,3.89
2022-12-18T09:30:31.454Z,3.94
2022-12-18T09:32:30.870Z,4.01
2022-12-18T09:34:29.178Z,3.94
2022-12-18T09:36:30.004Z,3.93
2022-12-18T09:38:28.102Z,4.00
2022-12-18T09:40:34.989Z,3.96
2022-12-18T09:42:33.372Z,3.90
2022-12-18T09:44:36.051Z,3.96
2022-12-18T09:46:42.793Z,4.16
2022-12-18T09:48:44.336Z,3.98
2022-12-18T09:50:43.042Z,4.10
2022-12-18T09:52:47.019Z,4.08
2022-12-18T09:54:48.511Z,4.08
2022-12-18T09:56:48.273Z,4.14
2022-12-18T09:58:51.442Z,4.13
2022-12-18T10:00:49.680Z,4.30
2022-12-18T10:02:54.251Z,4.41
2022-12-18T10:05:04.435Z,4.27
2022-12-18T10:07:10.159Z,4.14
2022-12-18T10:09:16.246Z,4.08
2022-12-18T10:11:29.966Z,4.36
2022-12-18T10:13:36.018Z,4.16
2022-12-18T10:15:42.442Z,4.30
2022-12-18T10:17:45.656Z,4.54
2022-12-18T10:19:50.435Z,4.60
2022-12-18T10:21:58.615Z,4.66
2022-12-18T10:24:04.202Z,4.78
2022-12-18T10:26:05.650Z,4.64
2022-12-18T10:28:12.263Z,4.48
2022-12-18T10:30:18.236Z,4.72
2022-12-18T10:32:19.529Z,4.54
2022-12-18T10:34:17.829Z,4.78
2022-12-18T10:36:16.186Z,4.85
2022-12-18T10:38:26.074Z,4.96
2022-12-18T10:40:27.199Z,5.04
2022-12-18T10:42:25.562Z,4.97
2022-12-18T10:44:27.828Z,4.96
2022-12-18T10:46:27.673Z,5.11
2022-12-18T10:48:26.945Z,5.11
2022-12-18T10:50:53.963Z,5.12
2022-12-18T10:52:57.274Z,5.19
2022-12-18T10:54:59.313Z,5.22
2022-12-18T10:57:16.824Z,5.15
2022-12-18T10:59:16.931Z,5.28
2022-12-18T11:01:17.002Z,5.23
2022-12-18T11:03:36.705Z,5.13
2022-12-18T11:05:37.951Z,4.91
2022-12-18T11:07:51.455Z,4.80
2022-12-18T11:10:06.631Z,4.71
2022-12-18T11:12:07.166Z,4.80
2022-12-18T11:14:07.617Z,4.82
2022-12-18T11:16:06.075Z,4.70
2022-12-18T11:18:04.462Z,4.66
2022-12-18T11:20:09.192Z,4.86
2022-12-18T11:22:46.521Z,4.97
2022-12-18T11:29:06.231Z,5.02
2022-12-18T11:31:28.669Z,4.95
2022-12-18T11:33:38.139Z,4.85
2022-12-18T11:36:02.831Z,4.74
2022-12-18T11:38:20.136Z,4.97
2022-12-18T11:40:51.796Z,4.96
2022-12-18T11:43:10.598Z,4.58
2022-12-18T11:45:43.753Z,4.71
2022-12-18T11:48:13.006Z,4.74
2022-12-18T11:50:59.014Z,4.68
2022-12-18T11:53:25.278Z,4.72
2022-12-18T11:55:59.732Z,4.72
2022-12-18T11:58:07.175Z,4.73
2022-12-18T12:00:16.811Z,4.79
2022-12-18T12:02:32.026Z,4.85
2022-12-18T12:04:49.082Z,4.75
2022-12-18T12:07:00.043Z,4.68
2022-12-18T12:09:13.687Z,4.57
2022-12-18T12:11:21.274Z,4.63
2022-12-18T12:13:32.344Z,4.50
2022-12-18T12:15:44.422Z,4.54
2022-12-18T12:17:47.921Z,4.58
2022-12-18T12:19:54.804Z,4.74
2022-12-18T12:22:00.257Z,4.82
2022-12-18T12:24:12.736Z,4.74
2022-12-18T12:26:14.107Z,4.82
2022-12-18T12:28:20.715Z,4.75
2022-12-18T12:30:23.912Z,4.79
2022-12-18T12:32:33.907Z,4.71
2022-12-18T12:34:42.657Z,4.66
2022-12-18T12:36:54.233Z,4.54
2022-12-18T12:38:57.232Z,4.54
2022-12-18T12:41:03.406Z,4.39
2022-12-18T12:43:15.177Z,4.40
2022-12-18T12:45:22.724Z,4.41
2022-12-18T12:47:26.186Z,4.56
2022-12-18T12:49:29.189Z,4.48
2022-12-18T12:51:30.472Z,4.37
2022-12-18T12:53:33.008Z,4.44
2022-12-18T12:55:32.173Z,4.46
2022-12-18T12:57:37.034Z,4.42
2022-12-18T12:59:44.700Z,4.37
2022-12-18T13:01:55.272Z,4.29
2022-12-18T13:04:03.417Z,4.43
2022-12-18T13:06:05.290Z,4.36
2022-12-18T13:08:08.833Z,4.33
2022-12-18T13:10:29.319Z,4.45
2022-12-18T13:12:45.983Z,4.51
2022-12-18T13:14:46.477Z,4.46
2022-12-18T13:16:45.074Z,4.50
2022-12-18T13:18:51.411Z,4.47
2022-12-18T13:20:55.237Z,4.41
2022-12-18T13:22:58.025Z,4.33
2022-12-18T13:24:56.615Z,4.37
2022-12-18T13:26:56.242Z,4.28
2022-12-18T13:28:56.317Z,4.26
2022-12-18T13:30:59.622Z,4.22
2022-12-18T13:34:25.215Z,4.12
2022-12-18T13:36:16.799Z,4.17
2022-12-18T13:38:24.114Z,4.26
2022-12-18T13:41:06.560Z,4.13
2022-12-18T13:43:25.407Z,4.12
2022-12-18T13:46:11.779Z,4.18
2022-12-18T13:48:23.511Z,3.97
2022-12-18T13:50:35.430Z,4.03
2022-12-18T13:52:39.436Z,3.95
2022-12-18T13:54:41.497Z,3.85
2022-12-18T13:56:47.074Z,3.83
2022-12-18T13:58:46.420Z,3.82
2022-12-18T14:00:46.472Z,3.71
2022-12-18T14:02:47.972Z,3.80
2022-12-18T14:04:49.725Z,3.88
2022-12-18T14:06:48.411Z,3.84
2022-12-18T14:08:47.646Z,3.83
2022-12-18T14:10:50.055Z,3.91
2022-12-18T14:13:01.108Z,3.89
2022-12-18T14:15:02.550Z,3.79
2022-12-18T14:17:01.619Z,3.77
2022-12-18T14:19:15.665Z,3.73
2022-12-18T14:21:24.494Z,3.52
2022-12-18T14:23:31.382Z,3.55
2022-12-18T14:25:33.151Z,3.63
2022-12-18T14:27:32.718Z,3.57
2022-12-18T14:29:32.876Z,3.49
2022-12-18T14:31:32.978Z,3.49
2022-12-18T14:33:31.112Z,3.61
2022-12-18T14:35:32.490Z,3.65
2022-12-18T14:37:32.177Z,3.73
2022-12-18T14:39:30.396Z,3.76
2022-12-18T14:41:28.930Z,3.74
2022-12-18T14:43:27.884Z,3.62
2022-12-18T14:45:41.575Z,3.61
2022-12-18T14:47:45.312Z,3.52
2022-12-18T14:49:44.656Z,3.44
2022-12-18T14:51:49.945Z,3.44
2022-12-18T14:53:55.822Z,3.42
2022-12-18T14:55:54.444Z,3.31
2022-12-18T14:57:58.295Z,3.29
2022-12-18T15:00:09.936Z,3.22
2022-12-18T15:02:20.012Z,3.28
2022-12-18T15:04:40.334Z,3.32
2022-12-18T15:06:41.343Z,3.26
2022-12-18T15:08:39.712Z,3.14
2022-12-18T15:10:49.748Z,3.12
2022-12-18T15:12:50.845Z,3.15
2022-12-18T15:14:49.153Z,3.17
2022-12-18T15:16:53.145Z,3.12
2022-12-18T15:18:51.562Z,3.11
2022-12-18T15:20:51.807Z,3.10
2022-12-18T15:22:50.199Z,3.12
2022-12-18T15:24:48.745Z,3.14
2022-12-18T15:26:48.875Z,3.15
2022-12-18T15:28:50.857Z,3.12
2022-12-18T15:31:04.357Z,3.06
2022-12-18T15:33:24.441Z,3.08
2022-12-18T15:35:24.427Z,3.08
2022-12-18T15:37:22.671Z,3.04
2022-12-18T15:39:20.985Z,2.95
2022-12-18T15:41:24.738Z,2.96
2022-12-18T15:43:36.860Z,2.97
2022-12-18T15:45:35.001Z,3.01
2022-12-18T15:47:35.420Z,3.01
2022-12-18T15:49:33.757Z,2.98
2022-12-18T15:51:35.392Z,3.01
2022-12-18T15:53:35.779Z,3.01
2022-12-18T15:55:53.341Z,3.02
2022-12-18T15:57:54.014Z,2.99
2022-12-18T15:59:55.414Z,2.86
2022-12-18T16:01:55.175Z,2.91
2022-12-18T16:03:54.709Z,2.86
2022-12-18T16:05:53.080Z,2.83
2022-12-18T16:07:52.511Z,2.81
2022-12-18T16:09:50.827Z,2.84
2022-12-18T16:11:49.064Z,2.94
2022-12-18T16:13:47.413Z,3.13
2022-12-18T16:15:47.370Z,3.15
2022-12-18T16:17:46.384Z,3.08
2022-12-18T16:19:45.842Z,2.95
2022-12-18T16:21:44.330Z,2.91
2022-12-18T16:23:43.049Z,2.98
2022-12-18T16:25:41.446Z,2.87
2022-12-18T16:27:39.727Z,2.82
2022-12-18T16:29:38.711Z,3.01
2022-12-18T16:31:38.709Z,2.89
2022-12-18T16:33:36.975Z,2.86
2022-12-18T16:35:35.366Z,2.92
2022-12-18T16:37:33.653Z,2.88
2022-12-18T16:39:33.039Z,2.92
2022-12-18T16:41:33.860Z,2.85
2022-12-18T16:43:31.983Z,2.83
2022-12-18T16:45:34.301Z,2.92
2022-12-18T16:47:34.107Z,2.85
2022-12-18T16:49:32.685Z,2.81
2022-12-18T16:51:31.298Z,2.84
2022-12-18T16:53:32.331Z,2.80
2022-12-18T16:55:31.631Z,2.71
2022-12-18T16:57:29.866Z,2.72
2022-12-18T16:59:27.978Z,2.61
2022-12-18T17:01:27.596Z,2.67
2022-12-18T17:03:27.742Z,2.64
2022-12-18T17:05:26.132Z,2.68
2022-12-18T17:07:25.103Z,2.78
2022-12-18T17:09:25.699Z,2.77
2022-12-18T17:11:24.961Z,2.59
2022-12-18T17:13:37.462Z,2.56
2022-12-18T17:15:36.674Z,2.51
2022-12-18T17:17:36.595Z,2.55
2022-12-18T17:19:37.120Z,2.49
2022-12-18T17:21:35.376Z,2.51
2022-12-18T17:23:33.908Z,2.39
2022-12-18T17:25:32.241Z,2.39
2022-12-18T17:27:30.984Z,2.32
2022-12-18T17:29:29.186Z,2.37
2022-12-18T17:31:28.977Z,2.41
2022-12-18T17:33:27.232Z,2.44
2022-12-18T17:35:26.883Z,2.43
2022-12-18T17:37:25.737Z,2.44
2022-12-18T17:39:23.987Z,2.39
2022-12-18T17:41:22.724Z,2.32
2022-12-18T17:43:21.105Z,2.32
2022-12-18T17:45:21.140Z,2.24
2022-12-18T17:47:20.149Z,2.19
2022-12-18T17:49:18.533Z,2.21
2022-12-18T17:51:19.190Z,2.16
2022-12-18T17:53:17.479Z,2.19
2022-12-18T17:55:15.816Z,2.10
2022-12-18T17:57:14.103Z,2.20
2022-12-18T17:59:12.492Z,2.20
2022-12-18T18:01:12.268Z,2.31
2022-12-18T18:03:12.706Z,2.29
2022-12-18T18:05:11.948Z,2.30
2022-12-18T18:07:13.622Z,2.32
2022-12-18T18:09:15.998Z,2.23
2022-12-18T18:11:35.181Z,2.16
2022-12-18T18:13:51.192Z,2.21
2022-12-18T18:15:57.045Z,2.10
2022-12-18T18:17:55.258Z,2.09
2022-12-18T18:19:53.634Z,2.25
2022-12-18T18:21:53.822Z,2.28
2022-12-18T18:23:54.204Z,2.05
2022-12-18T18:25:55.660Z,1.87
2022-12-18T18:27:54.382Z,1.80
2022-12-18T18:29:52.644Z,1.73
2022-12-18T18:31:51.108Z,1.81
2022-12-18T18:33:50.013Z,1.83
2022-12-18T18:35:55.529Z,1.85
2022-12-18T18:37:53.683Z,1.80
2022-12-18T18:39:53.536Z,1.80
2022-12-18T18:41:52.332Z,1.76
2022-12-18T18:43:50.520Z,1.73
2022-12-18T18:45:50.532Z,1.83
2022-12-18T18:47:48.833Z,1.80
2022-12-18T18:49:47.005Z,1.79
2022-12-18T18:51:45.212Z,1.65
2022-12-18T18:53:45.431Z,1.56
2022-12-18T18:55:44.951Z,1.56
2022-12-18T18:57:43.317Z,1.58
2022-12-18T18:59:42.135Z,1.53
2022-12-18T19:01:40.361Z,1.58
2022-12-18T19:03:39.974Z,1.64
2022-12-18T19:05:42.882Z,1.55
2022-12-18T19:07:41.397Z,1.67
2022-12-18T19:09:39.618Z,1.62
2022-12-18T19:11:57.126Z,1.57
2022-12-18T19:13:55.640Z,1.35
2022-12-18T19:15:58.033Z,1.37
2022-12-18T19:17:56.473Z,1.42
2022-12-18T19:19:54.799Z,1.40
2022-12-18T19:21:53.042Z,1.42
2022-12-18T19:23:51.572Z,1.40
2022-12-18T19:25:52.972Z,1.30
2022-12-18T19:28:21.466Z,1.28
2022-12-18T19:30:20.732Z,1.18
2022-12-18T19:32:18.929Z,1.23
2022-12-18T19:34:17.374Z,1.21
2022-12-18T19:36:19.685Z,1.13
2022-12-18T19:38:18.051Z,1.15
2022-12-18T19:40:16.299Z,1.18
2022-12-18T19:42:14.458Z,1.08
2022-12-18T19:44:15.570Z,1.01
2022-12-18T19:46:16.426Z,1.00
2022-12-18T19:48:14.681Z,1.03
2022-12-18T19:50:12.994Z,1.04
2022-12-18T19:52:11.472Z,1.02
2022-12-18T19:54:14.727Z,1.15
2022-12-18T19:56:17.074Z,1.05
2022-12-18T19:58:15.287Z,1.06
2022-12-18T20:00:18.838Z,1.01
2022-12-18T20:02:19.162Z,0.95
2022-12-18T20:04:17.519Z,0.92
2022-12-18T20:06:20.369Z,0.86
2022-12-18T20:08:18.718Z,0.89
2022-12-18T20:10:17.421Z,0.77
2022-12-18T20:12:17.210Z,0.81
2022-12-18T20:14:20.654Z,0.86
2022-12-18T20:16:23.305Z,0.81
2022-12-18T20:18:21.442Z,0.78
2022-12-18T20:20:20.045Z,0.70
2022-12-18T20:22:18.822Z,0.71
2022-12-18T20:24:17.001Z,0.76
2022-12-18T20:26:16.691Z,0.75
2022-12-18T20:28:14.997Z,0.62
2022-12-18T20:30:14.064Z,0.43
2022-12-18T20:32:13.741Z,0.44
2022-12-18T20:34:12.097Z,0.35
2022-12-18T20:36:15.428Z,0.36
2022-12-18T20:38:14.676Z,0.34
2022-12-18T20:40:14.928Z,0.33
2022-12-18T20:42:13.076Z,0.27
2022-12-18T20:44:23.040Z,0.37
2022-12-18T20:46:22.505Z,0.36
2022-12-18T20:48:26.462Z,0.37
2022-12-18T20:50:24.879Z,0.23
2022-12-18T20:52:23.499Z,0.20
2022-12-18T20:54:22.269Z,0.15
2022-12-18T20:56:23.299Z,0.15
2022-12-18T20:58:21.726Z,0.13
2022-12-18T21:00:21.237Z,0.01
2022-12-18T21:02:27.012Z,-0.05
2022-12-18T21:04:26.709Z,0.05
2022-12-18T21:06:25.749Z,0.09
2022-12-18T21:08:24.016Z,0.12
2022-12-18T21:10:22.280Z,0.11
2022-12-18T21:12:40.267Z,-0.01
2022-12-18T21:14:47.776Z,0.05
2022-12-18T21:16:49.160Z,0.17
2022-12-18T21:18:47.242Z,0.09
2022-12-18T21:20:46.979Z,0.12
2022-12-18T21:22:45.328Z,0.07
2022-12-18T21:24:43.525Z,0.07
2022-12-18T21:26:46.322Z,0.06
2022-12-18T21:28:45.049Z,-0.02
2022-12-18T21:30:43.438Z,0.01
2022-12-18T21:32:41.903Z,0.06
2022-12-18T21:34:43.375Z,0.16
2022-12-18T21:36:47.960Z,0.15
2022-12-18T21:38:46.176Z,0.10
2022-12-18T21:40:45.301Z,0.00
2022-12-18T21:43:00.823Z,-0.03
2022-12-18T21:44:59.184Z,-0.06
2022-12-18T21:47:05.778Z,-0.08
2022-12-18T21:49:11.892Z,-0.04
2022-12-18T21:51:10.251Z,-0.02
2022-12-18T21:53:12.474Z,0.02
2022-12-18T21:55:11.037Z,-0.02
2022-12-18T21:57:09.745Z,-0.06
2022-12-18T21:59:08.506Z,-0.14
2022-12-18T22:01:06.999Z,-0.11
2022-12-18T22:03:18.676Z,-0.12
2022-12-18T22:05:17.443Z,-0.13
2022-12-18T22:07:16.984Z,-0.18
2022-12-18T22:09:18.539Z,-0.20
2022-12-18T22:11:16.717Z,-0.24
2022-12-18T22:13:16.338Z,-0.25
2022-12-18T22:15:21.527Z,-0.17
2022-12-18T22:17:20.318Z,-0.17
2022-12-18T22:19:20.613Z,-0.22
2022-12-18T22:21:29.665Z,-0.27
2022-12-18T22:23:28.054Z,-0.29
2022-12-18T22:25:27.759Z,-0.27
2022-12-18T22:27:25.962Z,-0.27
2022-12-18T22:29:43.181Z,-0.31
2022-12-18T22:31:41.882Z,-0.34
2022-12-18T22:33:40.200Z,-0.36
2022-12-18T22:35:38.482Z,-0.38
2022-12-18T22:37:37.076Z,-0.30
2022-12-18T22:39:35.246Z,-0.21
2022-12-18T22:41:35.789Z,-0.12
2022-12-18T22:43:34.506Z,-0.16
2022-12-18T22:45:32.711Z,-0.09
2022-12-18T22:47:36.813Z,0.02
2022-12-18T22:49:35.647Z,-0.07
2022-12-18T22:51:34.200Z,-0.15
2022-12-18T22:53:32.376Z,-0.20
2022-12-18T22:55:30.850Z,-0.30
2022-12-18T22:57:30.454Z,-0.18
2022-12-18T22:59:28.640Z,-0.10
2022-12-18T23:01:28.582Z,-0.14
2022-12-18T23:03:27.032Z,-0.22
2022-12-18T23:05:25.226Z,-0.29
2022-12-18T23:07:23.401Z,-0.26
2022-12-18T23:09:21.736Z,-0.29
2022-12-18T23:11:20.902Z,-0.33
2022-12-18T23:13:20.552Z,-0.35
2022-12-18T23:15:19.526Z,-0.37
2022-12-18T23:17:25.677Z,-0.40
2022-12-18T23:19:24.220Z,-0.39
2022-12-18T23:21:23.536Z,-0.50
2022-12-18T23:23:22.544Z,-0.44
2022-12-18T23:25:20.756Z,-0.39
2022-12-18T23:27:18.875Z,-0.38
2022-12-18T23:29:18.630Z,-0.39
2022-12-18T23:31:18.756Z,-0.49
2022-12-18T23:33:17.031Z,-0.47
2022-12-18T23:35:16.010Z,-0.50
2022-12-18T23:37:24.966Z,-0.50
2022-12-18T23:39:32.445Z,-0.54
2022-12-18T23:41:32.565Z,-0.47
2022-12-18T23:43:30.954Z,-0.42
2022-12-18T23:45:30.499Z,-0.39
2022-12-18T23:47:28.802Z,-0.37
2022-12-18T23:49:27.182Z,-0.51
2022-12-18T23:51:25.808Z,-0.54
2022-12-18T23:53:23.975Z,-0.63
2022-12-18T23:55:22.119Z,-0.56
2022-12-18T23:57:20.502Z,-0.56
2022-12-18T23:59:25.434Z,-0.53
